Ana Sayfa
METAR-TAF:

METAR-TAF

Havaalanları :

Durango, Meksika

Enlem: 24-08N, Boylam: 104-32W, yükseklik: 1857 m

Güncel hava durumu gözlemi

Rapor saat 11:01 UTC de 1 saat ve 6 dakika önce yapıldı.
Rüzgar kuzeydoğudan 2 kt
Sıcaklık 0°C
Nem 59%
Basınç 1023 hPa
Görüş mesafesi: 11.3 km
Açık gökyüzü

METAR: MMDO 291101Z RTD 04002KT 7SM SKC 00/M07 A3020 RMK RTS

Saat: 06:07 (12:07 UTC)

Tahmin

Rapor saat 05:27 UTC de 6 saat ve 40 dakika önce yapıldı.
Ayın 29'si saat 06 UTC'den ayın 30'si saat 06 UTC'ye kadar geçerli Tahmin
Rüzgar kuzeydan kt
Görüş mesafesi: 10 km
Açık gökyüzü
Ayın 29'si saat 1800 UTC'den
Rüzgar güney/güneydoğudan 10 kt
Görüş mesafesi: 10 km
Açık gökyüzü
Dönüşüyor
ayın 30'si saat 03 UTC'den ayın 30'si saat 05 UTC'ye kadar
Rüzgar batı/güneybatıdan 5 kt

TAF: MMDO 290527Z 2906/3006 00000KT P6SM SKC FM291800 16010KT P6SM SKC BECMG 3003/3005 25005KT

4.000'den fazla havaalanı için hava durumu gözlemleri ve tahminleri (METAR ve TAF raporları).

Kullanılabilir istasyonlar harita üzerinde sarı ve kırmızı noktalarla gösterilir.

İstasyonun adını görmek için fareyi noktanın üzerinde gezdirin.

Sonrasında hava gözlem ve tahminlerini görmek için tıklayın.

Haritayı değiştirmek için: yaklaştırmak için siyah artı işaretli yeşil düğmeye ve uzaklaştırmak için de eksi işaretli düğmeye hızla tıklayın; bitişik haritalar için yeşil okları kullanın.


METAR-TAF: